Time;durP1;ratioP1;P1;durP2;ratioP2;P2;SDS_P1;SDS_P2;PMS_P1;PMS_P2;Temp;Humidity;BMP_temperature;BMP_pressure;BME280_temperature;BME280_humidity;BME280_pressure;Samples;Min_cycle;Max_cycle;Signal;HPM_P1;HPM_P2
2023/03/31 00:00:42;;;;;;;;;2.00;2.00;;;;;13.69;100.00;99998.19;5098425;27;45657;-77
2023/03/31 00:03:09;;;;;;;;;1.67;1.67;;;;;13.70;100.00;99996.28;5100631;27;45323;-76
2023/03/31 00:05:38;;;;;;;;;2.33;1.00;;;;;13.67;100.00;99991.28;5088646;27;46528;-75
2023/03/31 00:08:06;;;;;;;;;2.33;2.33;;;;;13.63;100.00;99973.56;5085007;27;46180;-76
2023/03/31 00:10:33;;;;;;;;;2.67;1.33;;;;;13.59;100.00;99985.09;5088750;27;45865;-75
2023/03/31 00:13:00;;;;;;;;;3.33;1.67;;;;;13.56;100.00;99977.31;5080954;27;45805;-76
2023/03/31 00:15:26;;;;;;;;;7.00;2.00;;;;;13.55;100.00;99959.09;5080780;27;47294;-76
2023/03/31 00:17:52;;;;;;;;;4.67;0.67;;;;;13.47;100.00;99937.47;5091928;27;45859;-75
2023/03/31 00:20:17;;;;;;;;;2.67;1.67;;;;;13.21;100.00;99892.91;5090749;27;45776;-75
2023/03/31 00:22:46;;;;;;;;;4.67;1.67;;;;;13.40;100.00;99912.03;5084731;27;45513;-77
2023/03/31 00:25:13;;;;;;;;;3.67;2.00;;;;;13.38;100.00;99901.25;5072498;27;46278;-72
2023/03/31 00:27:44;;;;;;;;;1.33;0.67;;;;;13.36;100.00;99886.88;5088385;27;46482;-74
2023/03/31 00:30:14;;;;;;;;;8.67;2.67;;;;;13.34;100.00;99869.78;5082266;27;45818;-74
2023/03/31 00:32:40;;;;;;;;;2.33;2.33;;;;;13.25;100.00;99847.28;5085464;27;45917;-73
2023/03/31 00:35:05;;;;;;;;;6.00;1.67;;;;;13.24;100.00;99844.78;5077672;27;45642;-75
2023/03/31 00:37:32;;;;;;;;;1.67;1.67;;;;;13.31;100.00;99853.72;5081736;27;47485;-77
2023/03/31 00:39:58;;;;;;;;;4.00;1.00;;;;;13.22;100.00;99836.78;5077834;27;45538;-73
2023/03/31 00:42:24;;;;;;;;;5.33;2.33;;;;;13.23;100.00;99838.44;5082498;27;45418;-74
2023/03/31 00:45:15;;;;;;;;;5.67;1.33;;;;;13.35;100.00;99852.19;5070391;28;46059;-74
2023/03/31 00:47:52;;;;;;;;;3.33;2.00;;;;;13.38;100.00;99828.78;5091667;27;46142;-74
2023/03/31 00:50:28;;;;;;;;;0.67;0.67;;;;;13.34;100.00;99822.13;5083531;27;45454;-73
2023/03/31 00:53:02;;;;;;;;;3.67;1.67;;;;;13.40;100.00;99810.13;5088255;27;45805;-74
2023/03/31 00:55:33;;;;;;;;;2.33;1.67;;;;;13.36;100.00;99815.28;5097456;27;45717;-74
2023/03/31 00:58:00;;;;;;;;;4.33;2.67;;;;;13.24;100.00;99790.53;5084149;27;46962;-73
2023/03/31 01:00:26;;;;;;;;;3.33;2.00;;;;;13.28;100.00;99788.13;5073815;27;45508;-74
2023/03/31 01:02:59;;;;;;;;;3.00;2.00;;;;;13.29;100.00;99783.44;5071199;27;45513;-76
2023/03/31 01:05:35;;;;;;;;;3.67;1.67;;;;;13.32;100.00;99803.03;5096479;27;45660;-75
2023/03/31 01:08:01;;;;;;;;;4.67;1.33;;;;;13.27;100.00;99796.66;5073749;27;46358;-74
2023/03/31 01:10:29;;;;;;;;;1.00;1.00;;;;;13.20;100.00;99803.16;5086895;27;45763;-74
2023/03/31 01:12:56;;;;;;;;;0.67;0.67;;;;;13.18;100.00;99779.69;5092054;27;45686;-74
2023/03/31 01:15:21;;;;;;;;;0.67;0.67;;;;;13.10;100.00;99761.69;5084201;27;45526;-73
2023/03/31 01:17:49;;;;;;;;;2.00;2.00;;;;;13.23;100.00;99799.03;5068674;27;46936;-73
2023/03/31 01:20:40;;;;;;;;;2.33;1.67;;;;;13.30;100.00;99793.38;5084464;27;46902;-75
2023/03/31 01:23:11;;;;;;;;;3.00;0.00;;;;;13.39;100.00;99789.16;5079944;27;45423;-73
2023/03/31 01:25:37;;;;;;;;;1.67;1.67;;;;;13.47;100.00;99772.19;5065788;27;46557;-73
2023/03/31 01:28:24;;;;;;;;;1.67;0.00;;;;;13.53;100.00;99762.94;5099737;27;46576;-74
2023/03/31 01:31:11;;;;;;;;;4.00;0.00;;;;;13.62;100.00;99768.00;5079020;27;45577;-73
2023/03/31 01:34:01;;;;;;;;;1.67;1.67;;;;;13.66;100.00;99758.16;5073508;27;45652;-74
2023/03/31 01:36:38;;;;;;;;;4.00;0.00;;;;;13.75;100.00;99757.44;5090124;27;45548;-73
2023/03/31 01:39:31;;;;;;;;;1.00;1.00;;;;;13.80;100.00;99759.44;5093977;27;46784;-72
2023/03/31 01:42:14;;;;;;;;;3.00;2.00;;;;;13.82;100.00;99734.38;5058862;27;45482;-74
2023/03/31 01:44:56;;;;;;;;;3.00;1.00;;;;;13.81;100.00;99733.56;5083946;27;45481;-72
2023/03/31 01:47:31;;;;;;;;;3.00;1.00;;;;;13.82;100.00;99732.47;5090085;27;45441;-73
2023/03/31 01:50:09;;;;;;;;;4.00;1.00;;;;;13.80;100.00;99711.75;5079796;27;46188;-73
2023/03/31 01:52:44;;;;;;;;;3.00;2.00;;;;;13.78;100.00;99709.28;5089168;27;45452;-72
2023/03/31 01:55:46;;;;;;;;;5.67;1.33;;;;;13.77;100.00;99696.56;5087094;27;45777;-73
2023/03/31 01:58:40;;;;;;;;;3.00;2.00;;;;;13.80;100.00;99696.06;5030310;28;45452;-73
2023/03/31 02:01:28;;;;;;;;;4.33;2.67;;;;;13.82;100.00;99696.66;5084724;27;46302;-72
2023/03/31 02:04:17;;;;;;;;;7.33;2.00;;;;;13.81;100.00;99694.97;5079275;27;45535;-72
2023/03/31 02:06:52;;;;;;;;;3.00;1.67;;;;;13.83;100.00;99686.44;5067201;27;45530;-72
2023/03/31 02:09:23;;;;;;;;;3.00;1.33;;;;;13.89;100.00;99686.28;5088682;27;45741;-72
2023/03/31 02:11:52;;;;;;;;;5.67;2.00;;;;;13.95;100.00;99684.38;5101260;27;46207;-73
2023/03/31 02:14:23;;;;;;;;;3.67;2.00;;;;;13.99;100.00;99669.00;5092166;27;45693;-72
2023/03/31 02:16:57;;;;;;;;;3.33;2.00;;;;;13.94;100.00;99660.69;5075666;27;45787;-73
2023/03/31 02:19:26;;;;;;;;;1.67;1.67;;;;;14.04;100.00;99659.97;5062559;28;45632;-73
2023/03/31 02:21:53;;;;;;;;;1.67;1.67;;;;;14.01;100.00;99658.56;5086241;27;45676;-73
2023/03/31 02:24:23;;;;;;;;;1.33;1.33;;;;;14.02;100.00;99662.16;5069139;27;45759;-74
2023/03/31 02:27:22;;;;;;;;;4.00;2.33;;;;;14.00;100.00;99659.66;5091954;27;45429;-73
2023/03/31 02:29:48;;;;;;;;;0.33;0.00;;;;;13.93;100.00;99651.56;5091189;27;47046;-72
2023/03/31 02:32:13;;;;;;;;;4.67;2.67;;;;;13.98;100.00;99659.06;5095010;27;45456;-73
2023/03/31 02:34:39;;;;;;;;;6.33;5.00;;;;;13.91;100.00;99630.88;5081829;27;45341;-73
2023/03/31 02:37:05;;;;;;;;;4.33;2.33;;;;;13.95;100.00;99635.63;5085850;27;45491;-73
2023/03/31 02:39:35;;;;;;;;;6.33;3.00;;;;;13.98;100.00;99628.75;5078848;27;47009;-73
2023/03/31 02:42:06;;;;;;;;;5.00;3.33;;;;;13.97;100.00;99613.31;5093664;27;46433;-73
2023/03/31 02:44:33;;;;;;;;;5.33;3.00;;;;;13.91;100.00;99597.81;5081179;27;45701;-72
2023/03/31 02:46:59;;;;;;;;;3.00;2.00;;;;;13.94;100.00;99609.16;5082924;27;45375;-74
2023/03/31 02:49:25;;;;;;;;;3.00;2.67;;;;;13.99;100.00;99599.28;5072210;28;45647;-73
2023/03/31 02:52:10;;;;;;;;;5.00;1.50;;;;;13.95;100.00;99590.66;5087884;27;45973;-72
2023/03/31 02:55:14;;;;;;;;;2.67;2.00;;;;;13.91;100.00;99586.78;5099998;27;45482;-74
2023/03/31 02:58:04;;;;;;;;;3.67;2.33;;;;;13.89;100.00;99577.94;5088346;27;45440;-74
2023/03/31 03:01:04;;;;;;;;;3.00;2.00;;;;;13.85;100.00;99585.06;5086712;27;45623;-73
2023/03/31 03:03:50;;;;;;;;;4.67;3.00;;;;;13.82;100.00;99567.13;5097452;27;47552;-73
2023/03/31 03:06:40;;;;;;;;;0.67;0.67;;;;;13.75;100.00;99583.84;5094650;27;45968;-73
2023/03/31 03:09:33;;;;;;;;;2.67;1.33;;;;;13.71;100.00;99571.69;5073065;27;45478;-73
2023/03/31 03:12:31;;;;;;;;;7.33;3.00;;;;;13.57;100.00;99562.16;5073980;27;46026;-73
2023/03/31 03:15:09;;;;;;;;;5.00;4.00;;;;;13.65;100.00;99569.94;5072690;27;47071;-73
2023/03/31 03:17:41;;;;;;;;;3.67;2.00;;;;;13.68;100.00;99574.97;5081086;27;45454;-73
2023/03/31 03:20:08;;;;;;;;;6.33;4.67;;;;;13.68;100.00;99580.50;5076252;27;45624;-72
2023/03/31 03:22:35;;;;;;;;;6.33;3.00;;;;;13.65;100.00;99585.66;5087337;27;47034;-73
2023/03/31 03:25:00;;;;;;;;;2.33;2.33;;;;;13.69;100.00;99575.78;5092961;27;46281;-75
2023/03/31 03:27:27;;;;;;;;;3.00;2.67;;;;;13.70;100.00;99570.03;5087174;27;45613;-74
2023/03/31 03:29:57;;;;;;;;;8.00;3.33;;;;;13.69;100.00;99562.84;5083065;27;45748;-72
2023/03/31 03:32:22;;;;;;;;;3.67;1.67;;;;;13.70;100.00;99549.91;5087847;27;45642;-74
2023/03/31 03:34:48;;;;;;;;;8.00;4.33;;;;;13.68;100.00;99530.03;5097989;27;45491;-73
2023/03/31 03:37:14;;;;;;;;;3.00;3.00;;;;;13.71;100.00;99546.06;5082704;27;45725;-73
2023/03/31 03:39:39;;;;;;;;;6.00;3.67;;;;;13.68;100.00;99543.81;5084952;27;45892;-73
2023/03/31 03:42:11;;;;;;;;;8.33;5.33;;;;;13.58;100.00;99526.09;5076472;27;46722;-74
2023/03/31 03:44:36;;;;;;;;;10.00;5.33;;;;;13.61;100.00;99544.03;5092651;27;45370;-74
2023/03/31 03:47:02;;;;;;;;;4.00;2.67;;;;;13.52;100.00;99526.31;5098093;27;45311;-75
2023/03/31 03:49:27;;;;;;;;;5.33;3.33;;;;;13.53;100.00;99538.97;5086804;27;45881;-74
2023/03/31 03:51:53;;;;;;;;;5.67;5.67;;;;;13.37;100.00;99499.44;5091284;27;45562;-74
2023/03/31 03:54:18;;;;;;;;;7.33;5.67;;;;;13.55;100.00;99537.63;5088695;27;46108;-74
2023/03/31 03:56:43;;;;;;;;;3.67;1.00;;;;;13.57;100.00;99529.94;5090085;27;45757;-73
2023/03/31 03:59:10;;;;;;;;;7.33;3.33;;;;;13.58;100.00;99517.81;5083672;27;45830;-72
2023/03/31 04:01:36;;;;;;;;;6.00;4.67;;;;;13.66;100.00;99515.72;5091101;27;45736;-74
2023/03/31 04:04:02;;;;;;;;;6.33;3.33;;;;;13.71;100.00;99505.56;5091927;27;46082;-72
2023/03/31 04:06:27;;;;;;;;;5.00;2.67;;;;;13.70;100.00;99509.41;5089314;27;45417;-71
2023/03/31 04:08:52;;;;;;;;;6.00;3.33;;;;;13.75;100.00;99495.69;5085042;27;45913;-75
2023/03/31 04:11:18;;;;;;;;;5.33;3.33;;;;;13.76;100.00;99491.00;5083339;27;46018;-75
2023/03/31 04:13:45;;;;;;;;;2.33;2.00;;;;;13.70;100.00;99479.09;5088741;27;45828;-76
2023/03/31 04:16:10;;;;;;;;;2.33;2.33;;;;;13.78;100.00;99488.81;5087491;27;45646;-74
2023/03/31 04:18:41;;;;;;;;;4.33;4.00;;;;;13.79;100.00;99487.72;5089876;27;45800;-74
2023/03/31 04:21:11;;;;;;;;;6.00;2.00;;;;;13.87;100.00;99484.50;5095502;27;45903;-77
2023/03/31 04:23:45;;;;;;;;;9.33;5.33;;;;;13.87;100.00;99472.66;5092419;27;45825;-76
2023/03/31 04:26:12;;;;;;;;;5.00;3.67;;;;;13.93;100.00;99477.09;5094317;27;45843;-75
2023/03/31 04:28:41;;;;;;;;;10.00;6.67;;;;;13.90;100.00;99489.47;5097330;27;45752;-75
2023/03/31 04:31:08;;;;;;;;;4.33;3.00;;;;;13.90;100.00;99467.44;5095269;27;45900;-76
2023/03/31 04:33:37;;;;;;;;;7.33;4.33;;;;;13.95;100.00;99470.25;5101880;27;46796;-75
2023/03/31 04:36:05;;;;;;;;;4.67;2.33;;;;;13.93;100.00;99485.38;5080337;27;45690;-77
2023/03/31 04:38:32;;;;;;;;;8.00;4.00;;;;;13.91;100.00;99491.16;5095025;27;45543;-76
2023/03/31 04:40:58;;;;;;;;;9.00;8.00;;;;;13.96;100.00;99493.13;5078371;27;45631;-76
2023/03/31 04:43:23;;;;;;;;;9.33;7.00;;;;;13.85;100.00;99472.91;5076960;27;47878;-76
2023/03/31 04:45:48;;;;;;;;;4.00;2.67;;;;;13.92;100.00;99470.78;5072509;28;45799;-76
2023/03/31 04:48:14;;;;;;;;;11.00;7.33;;;;;13.92;100.00;99462.50;5094016;27;45375;-77
2023/03/31 04:50:40;;;;;;;;;10.33;5.00;;;;;13.91;100.00;99474.59;5085770;27;45324;-76
2023/03/31 04:53:06;;;;;;;;;2.33;1.00;;;;;13.84;100.00;99462.16;5107394;27;45912;-76
2023/03/31 04:55:32;;;;;;;;;7.67;5.00;;;;;13.90;100.00;99450.06;5098253;27;45897;-76
2023/03/31 04:57:58;;;;;;;;;8.67;3.00;;;;;13.91;100.00;99458.06;5096438;27;44788;-75
2023/03/31 05:00:23;;;;;;;;;8.00;3.33;;;;;13.90;100.00;99445.38;5088925;27;45873;-73
2023/03/31 05:02:50;;;;;;;;;4.67;1.00;;;;;13.86;100.00;99435.16;5088073;27;45602;-73
2023/03/31 05:05:15;;;;;;;;;7.67;4.67;;;;;13.94;100.00;99456.72;5085706;27;45738;-74
2023/03/31 05:07:41;;;;;;;;;9.00;5.67;;;;;13.97;100.00;99466.38;5094424;27;45851;-75
2023/03/31 05:10:07;;;;;;;;;7.00;5.67;;;;;13.97;100.00;99456.19;5094112;27;45511;-74
2023/03/31 05:12:36;;;;;;;;;7.00;3.00;;;;;13.80;100.00;99428.75;5086775;27;45841;-76
2023/03/31 05:15:03;;;;;;;;;4.33;3.00;;;;;13.95;100.00;99453.69;5093307;27;45836;-75
2023/03/31 05:17:31;;;;;;;;;4.67;3.67;;;;;14.00;100.00;99450.16;5093499;27;45425;-76
2023/03/31 05:20:00;;;;;;;;;4.00;3.00;;;;;14.01;100.00;99448.22;5099005;27;45479;-81
2023/03/31 05:22:26;;;;;;;;;7.67;4.00;;;;;14.03;100.00;99443.28;5098274;27;47203;-74
2023/03/31 05:24:52;;;;;;;;;6.67;4.00;;;;;14.00;100.00;99433.63;5094864;27;45904;-78
2023/03/31 05:27:18;;;;;;;;;6.67;2.67;;;;;13.99;100.00;99442.97;5100440;27;45535;-77
2023/03/31 05:29:43;;;;;;;;;6.33;4.33;;;;;13.99;100.00;99439.41;5084444;27;45959;-83
2023/03/31 05:32:09;;;;;;;;;9.67;5.00;;;;;13.90;100.00;99419.75;5090417;27;45454;-80
2023/03/31 05:34:35;;;;;;;;;6.00;3.33;;;;;14.03;100.00;99443.28;5086515;28;45889;-79
2023/03/31 05:37:01;;;;;;;;;5.33;4.00;;;;;13.95;100.00;99414.25;5105236;27;45444;-81
2023/03/31 05:39:31;;;;;;;;;6.00;3.00;;;;;13.98;100.00;99421.19;5107775;27;45346;-81
2023/03/31 05:41:58;;;;;;;;;4.33;2.00;;;;;14.10;100.00;99432.84;5086888;27;45584;-78
2023/03/31 05:44:23;;;;;;;;;4.00;3.00;;;;;14.05;100.00;99419.84;5080139;28;45426;-77
2023/03/31 05:46:49;;;;;;;;;7.67;3.00;;;;;13.94;100.00;99396.91;5106531;27;45484;-83
2023/03/31 05:49:15;;;;;;;;;7.00;5.67;;;;;14.18;100.00;99434.31;5093328;27;45794;-78
2023/03/31 05:51:43;;;;;;;;;9.33;4.00;;;;;14.18;100.00;99437.88;5086526;27;47185;-79
2023/03/31 05:54:09;;;;;;;;;9.00;5.33;;;;;14.14;100.00;99428.47;5079209;27;45784;-78
2023/03/31 05:56:35;;;;;;;;;4.33;3.33;;;;;14.19;100.00;99436.78;5098523;27;45491;-78
2023/03/31 05:59:00;;;;;;;;;8.00;3.67;;;;;14.10;100.00;99419.91;5099999;27;45369;-77
2023/03/31 06:01:26;;;;;;;;;3.67;2.00;;;;;14.22;100.00;99446.44;5091235;27;45362;-72
2023/03/31 06:03:52;;;;;;;;;4.00;3.00;;;;;14.22;100.00;99439.03;5090170;27;45634;-77
2023/03/31 06:06:18;;;;;;;;;12.67;4.00;;;;;14.14;100.00;99422.94;5058593;27;45958;-75
2023/03/31 06:08:45;;;;;;;;;8.67;3.67;;;;;14.33;100.00;99441.84;5077365;27;45721;-73
2023/03/31 06:11:13;;;;;;;;;9.00;5.33;;;;;14.38;100.00;99439.94;5092412;27;46018;-77
2023/03/31 06:13:39;;;;;;;;;8.33;4.67;;;;;14.41;100.00;99442.16;5083514;27;45534;-74
2023/03/31 06:16:05;;;;;;;;;5.00;4.00;;;;;14.41;100.00;99444.91;5084545;27;45741;-74
2023/03/31 06:18:33;;;;;;;;;4.00;3.00;;;;;14.41;100.00;99433.06;5083986;27;47395;-74
2023/03/31 06:20:59;;;;;;;;;6.33;4.00;;;;;14.40;100.00;99436.91;5093890;27;45863;-75
2023/03/31 06:23:25;;;;;;;;;6.33;6.33;;;;;14.42;100.00;99437.50;5092184;27;46437;-74
2023/03/31 06:25:52;;;;;;;;;9.67;5.67;;;;;14.43;100.00;99442.75;5087268;27;46556;-74
2023/03/31 06:28:19;;;;;;;;;7.67;4.00;;;;;14.41;100.00;99422.84;5070583;27;45541;-75
2023/03/31 06:30:45;;;;;;;;;8.67;3.67;;;;;14.44;100.00;99427.00;5082291;27;47864;-80
2023/03/31 06:33:10;;;;;;;;;9.00;4.33;;;;;14.47;100.00;99426.47;5095259;27;45467;-75
2023/03/31 06:35:40;;;;;;;;;5.67;3.00;;;;;14.44;100.00;99422.31;5093706;27;45923;-77
2023/03/31 06:38:06;;;;;;;;;5.33;2.00;;;;;14.50;100.00;99425.13;5089961;27;45733;-80
2023/03/31 06:40:32;;;;;;;;;11.00;4.00;;;;;14.54;100.00;99449.13;5086593;27;45494;-80
2023/03/31 06:42:58;;;;;;;;;11.67;5.33;;;;;14.46;100.00;99435.84;5079168;27;45687;-80
2023/03/31 06:45:24;;;;;;;;;10.00;5.00;;;;;14.64;100.00;99440.94;5086704;27;45801;-80
2023/03/31 06:47:49;;;;;;;;;8.33;4.00;;;;;14.78;100.00;99448.75;5097179;27;45944;-82
2023/03/31 06:50:15;;;;;;;;;10.33;7.00;;;;;14.83;100.00;99443.22;5094705;27;46016;-81
2023/03/31 06:52:40;;;;;;;;;12.00;3.00;;;;;14.87;100.00;99446.31;5083173;27;45855;-79
2023/03/31 06:55:08;;;;;;;;;8.00;5.67;;;;;14.90;100.00;99446.59;5088363;27;45447;-81
2023/03/31 06:57:33;;;;;;;;;5.00;4.00;;;;;14.98;100.00;99450.75;5102827;27;45609;-79
2023/03/31 06:59:59;;;;;;;;;10.33;4.67;;;;;14.99;100.00;99439.44;5082081;27;46063;-79
2023/03/31 07:02:24;;;;;;;;;6.67;3.00;;;;;14.97;100.00;99438.03;5094150;27;46024;-76
2023/03/31 07:04:50;;;;;;;;;7.67;4.00;;;;;14.90;100.00;99432.78;5084813;27;45534;-75
2023/03/31 07:07:15;;;;;;;;;7.33;5.67;;;;;14.89;100.00;99441.34;5070684;27;45885;-77
2023/03/31 07:09:41;;;;;;;;;10.67;5.00;;;;;14.81;100.00;99415.09;5084799;27;46191;-77
2023/03/31 07:12:06;;;;;;;;;5.00;3.67;;;;;14.96;100.00;99442.75;5071186;27;45857;-77
2023/03/31 07:14:32;;;;;;;;;4.67;3.67;;;;;15.02;100.00;99435.31;5091645;27;45712;-77
2023/03/31 07:16:58;;;;;;;;;4.00;3.00;;;;;15.08;100.00;99431.47;5083733;27;45935;-78
2023/03/31 07:19:23;;;;;;;;;4.33;2.33;;;;;15.12;100.00;99431.75;5093313;27;45372;-77
2023/03/31 07:21:50;;;;;;;;;4.67;3.00;;;;;15.12;100.00;99407.72;5091431;27;46029;-78
2023/03/31 07:24:16;;;;;;;;;3.67;3.00;;;;;15.21;100.00;99441.19;5083169;27;45659;-77
2023/03/31 07:26:42;;;;;;;;;4.67;2.67;;;;;15.28;100.00;99441.72;5066227;27;45979;-78
2023/03/31 07:29:07;;;;;;;;;3.00;3.00;;;;;15.24;100.00;99401.13;5066445;27;47109;-78
2023/03/31 07:31:33;;;;;;;;;5.67;1.00;;;;;15.32;100.00;99409.69;5080839;27;45703;-78
2023/03/31 07:34:00;;;;;;;;;4.67;2.67;;;;;15.62;100.00;99457.81;5049041;28;45754;-78
2023/03/31 07:36:25;;;;;;;;;4.00;3.00;;;;;15.69;100.00;99447.34;5072339;27;45474;-76
2023/03/31 07:38:51;;;;;;;;;3.00;2.00;;;;;15.93;100.00;99441.31;5067463;28;46522;-78
2023/03/31 07:41:19;;;;;;;;;4.00;3.00;;;;;16.12;100.00;99451.78;5059850;27;45740;-77
2023/03/31 07:43:45;;;;;;;;;7.00;4.00;;;;;16.14;100.00;99420.00;5055670;27;45590;-79
2023/03/31 07:46:23;;;;;;;;;3.00;2.00;;;;;16.37;100.00;99443.47;5059591;27;45416;-79
2023/03/31 07:48:49;;;;;;;;;1.67;1.00;;;;;16.48;100.00;99462.81;5048136;28;46764;-75
2023/03/31 07:51:18;;;;;;;;;3.67;1.00;;;;;16.45;100.00;99436.53;5069601;27;45870;-78
2023/03/31 07:53:44;;;;;;;;;4.00;2.33;;;;;16.59;100.00;99442.31;5067555;27;45976;-77
2023/03/31 07:56:09;;;;;;;;;2.00;2.00;;;;;16.57;100.00;99430.69;5057780;28;45745;-79
2023/03/31 07:58:35;;;;;;;;;2.67;1.33;;;;;16.67;100.00;99457.50;5060904;27;46820;-79
2023/03/31 08:01:01;;;;;;;;;3.00;1.67;;;;;16.60;100.00;99427.34;5086787;27;45410;-79
2023/03/31 08:03:27;;;;;;;;;1.33;1.33;;;;;16.71;100.00;99448.38;5082872;27;45720;-77
2023/03/31 08:05:53;;;;;;;;;1.00;1.00;;;;;16.72;100.00;99430.66;5068499;27;45974;-79
2023/03/31 08:08:20;;;;;;;;;3.00;0.00;;;;;16.73;100.00;99429.53;5063423;27;45710;-79
2023/03/31 08:10:46;;;;;;;;;3.33;3.33;;;;;16.70;100.00;99437.56;5061935;27;46003;-77
2023/03/31 08:13:11;;;;;;;;;2.67;2.33;;;;;16.56;100.00;99416.03;5049829;27;45475;-80
2023/03/31 08:15:37;;;;;;;;;2.33;2.00;;;;;16.69;100.00;99447.81;5089675;27;45725;-76
2023/03/31 08:18:03;;;;;;;;;7.67;3.00;;;;;16.65;100.00;99443.97;5075666;27;46652;-79
2023/03/31 08:20:29;;;;;;;;;6.33;3.00;;;;;16.66;100.00;99453.09;5070538;27;46628;-78
2023/03/31 08:22:55;;;;;;;;;8.67;2.33;;;;;16.71;100.00;99444.78;5056347;27;45520;-78
2023/03/31 08:25:20;;;;;;;;;3.00;1.33;;;;;16.78;100.00;99425.91;5052732;28;46756;-77
2023/03/31 08:27:49;;;;;;;;;3.67;2.33;;;;;16.95;100.00;99420.06;5070122;27;46282;-78
2023/03/31 08:30:16;;;;;;;;;4.33;2.67;;;;;17.11;100.00;99432.72;5048856;28;46061;-77
2023/03/31 08:32:42;;;;;;;;;6.33;3.00;;;;;17.14;100.00;99430.50;5084237;27;45649;-77
2023/03/31 08:35:09;;;;;;;;;4.00;1.00;;;;;17.33;100.00;99439.81;5085874;27;45513;-78
2023/03/31 08:37:36;;;;;;;;;4.00;2.67;;;;;17.45;100.00;99426.44;5081766;27;45523;-77
2023/03/31 08:40:08;;;;;;;;;3.67;0.00;;;;;17.69;100.00;99431.25;5082296;27;45939;-78
2023/03/31 08:42:40;;;;;;;;;2.00;1.00;;;;;18.11;100.00;99445.66;5081553;27;45422;-78
2023/03/31 08:45:24;;;;;;;;;4.67;2.00;;;;;18.27;100.00;99426.91;5088386;27;45721;-78
2023/03/31 08:47:56;;;;;;;;;3.33;2.00;;;;;18.32;100.00;99443.50;5082018;27;46104;-76
2023/03/31 08:50:29;;;;;;;;;3.67;2.33;;;;;18.21;100.00;99442.78;5076461;27;45459;-77
2023/03/31 08:53:18;;;;;;;;;4.00;3.00;;;;;18.13;100.00;99440.66;5062025;27;45869;-77
2023/03/31 08:55:55;;;;;;;;;2.00;1.00;;;;;17.97;100.00;99437.16;5057424;28;47391;-77
2023/03/31 08:58:21;;;;;;;;;4.00;1.00;;;;;17.88;100.00;99441.66;5069982;27;47063;-77
2023/03/31 09:00:57;;;;;;;;;3.67;3.67;;;;;17.75;100.00;99424.53;5064345;27;45642;-77
2023/03/31 09:03:32;;;;;;;;;3.67;2.00;;;;;17.80;100.00;99424.53;5079364;27;45882;-77
2023/03/31 09:06:04;;;;;;;;;2.00;2.00;;;;;17.57;100.00;99419.69;5082025;27;45493;-78
2023/03/31 09:08:34;;;;;;;;;4.33;0.67;;;;;17.36;100.00;99416.25;5087849;27;46790;-78
2023/03/31 09:11:25;;;;;;;;;1.33;1.00;;;;;17.29;100.00;99422.94;5091222;27;45967;-77
2023/03/31 09:14:09;;;;;;;;;3.00;2.00;;;;;17.16;100.00;99420.78;5090393;27;45414;-76
2023/03/31 09:16:58;;;;;;;;;4.33;1.67;;;;;17.13;100.00;99429.69;5090318;27;45939;-79
2023/03/31 09:19:36;;;;;;;;;2.67;2.67;;;;;17.07;100.00;99436.34;5083290;27;45844;-76
2023/03/31 09:22:05;;;;;;;;;7.67;3.67;;;;;16.89;100.00;99419.25;5076377;27;45619;-78
2023/03/31 09:24:42;;;;;;;;;5.67;1.00;;;;;16.96;100.00;99423.66;5095963;27;45614;-77
2023/03/31 09:27:11;;;;;;;;;3.67;2.67;;;;;16.90;100.00;99443.06;5094870;27;48081;-79
2023/03/31 09:29:48;;;;;;;;;0.67;0.67;;;;;16.67;100.00;99461.09;5077823;27;47259;-77
2023/03/31 09:32:20;;;;;;;;;2.67;0.00;;;;;16.54;100.00;99437.63;5106682;27;45698;-76
2023/03/31 09:34:59;;;;;;;;;7.67;2.00;;;;;16.48;100.00;99454.50;5065465;27;45360;-76
2023/03/31 09:37:29;;;;;;;;;3.33;2.00;;;;;16.42;100.00;99440.69;5109474;27;45859;-81
2023/03/31 09:39:58;;;;;;;;;5.33;1.00;;;;;16.55;100.00;99452.28;5088012;27;45559;-79
2023/03/31 09:42:24;;;;;;;;;7.00;2.00;;;;;16.61;100.00;99442.84;5077325;27;45496;-76
2023/03/31 09:44:53;;;;;;;;;2.67;2.00;;;;;16.68;100.00;99437.84;5083304;27;45383;-79
2023/03/31 09:47:30;;;;;;;;;2.00;0.33;;;;;17.10;100.00;99417.22;5088942;27;45745;-78
2023/03/31 09:49:56;;;;;;;;;3.00;1.00;;;;;17.57;100.00;99425.25;5056539;27;46940;-78
2023/03/31 09:52:31;;;;;;;;;3.33;1.67;;;;;18.02;100.00;99434.34;5074130;27;45664;-78
2023/03/31 09:55:00;;;;;;;;;2.00;0.67;;;;;18.10;100.00;99400.44;5087787;27;46360;-82
2023/03/31 09:57:35;;;;;;;;;2.00;2.00;;;;;18.31;100.00;99428.81;5096437;27;45275;-80
2023/03/31 10:00:22;;;;;;;;;4.00;2.00;;;;;18.38;100.00;99413.75;5088552;27;46734;-79
2023/03/31 10:02:52;;;;;;;;;0.33;0.33;;;;;18.77;100.00;99419.16;5063071;27;45912;-81
2023/03/31 10:05:29;;;;;;;;;1.33;1.00;;;;;18.92;100.00;99409.81;5091163;27;45866;-79
2023/03/31 10:08:16;;;;;;;;;1.00;1.00;;;;;19.13;100.00;99410.38;5076203;27;45724;-82
2023/03/31 10:11:02;;;;;;;;;3.00;2.00;;;;;19.09;100.00;99417.66;5086561;27;45797;-80
2023/03/31 10:13:34;;;;;;;;;2.00;0.00;;;;;18.75;100.00;99396.38;5063024;27;46003;-82
2023/03/31 10:16:12;;;;;;;;;1.00;1.00;;;;;18.68;100.00;99390.34;5107496;27;45900;-81
2023/03/31 10:18:40;;;;;;;;;1.00;1.00;;;;;18.45;100.00;99403.13;5095644;27;46690;-82
2023/03/31 10:21:18;;;;;;;;;0.67;0.33;;;;;18.40;100.00;99392.91;5066067;27;48282;-81
2023/03/31 10:23:49;;;;;;;;;0.67;0.33;;;;;18.62;100.00;99414.59;5090409;27;45767;-82
2023/03/31 10:26:19;;;;;;;;;3.67;1.00;;;;;18.69;100.00;99403.94;5083306;27;45832;-81
2023/03/31 10:28:48;;;;;;;;;2.33;1.00;;;;;18.84;100.00;99422.38;5089903;27;47193;-76
2023/03/31 10:31:14;;;;;;;;;2.67;2.00;;;;;18.87;100.00;99409.88;5072724;27;45739;-77
2023/03/31 10:33:46;;;;;;;;;4.25;1.00;;;;;18.91;100.00;99399.84;5072325;27;45975;-77
2023/03/31 10:36:22;;;;;;;;;3.00;2.00;;;;;19.10;100.00;99408.22;5088846;27;45941;-80
2023/03/31 10:38:50;;;;;;;;;2.67;1.00;;;;;19.37;100.00;99401.13;5093761;27;45632;-80
2023/03/31 10:41:28;;;;;;;;;2.00;1.00;;;;;19.51;100.00;99404.81;5066995;27;47155;-78
2023/03/31 10:43:59;;;;;;;;;1.00;0.00;;;;;19.53;100.00;99396.19;5071782;27;45883;-76
2023/03/31 10:46:48;;;;;;;;;1.00;1.00;;;;;19.37;100.00;99413.09;5072071;27;45970;-76
2023/03/31 10:49:26;;;;;;;;;1.00;1.00;;;;;19.14;99.81;99414.81;5090770;27;45560;-81
2023/03/31 10:51:57;;;;;;;;;1.00;1.00;;;;;19.17;99.62;99407.81;5090603;27;45596;-81
2023/03/31 10:54:24;;;;;;;;;2.00;2.00;;;;;19.34;100.00;99396.19;5072044;27;46915;-80
2023/03/31 10:56:57;;;;;;;;;2.00;0.67;;;;;19.29;98.60;99399.03;5093372;27;45991;-79
2023/03/31 10:59:26;;;;;;;;;1.25;1.00;;;;;19.11;98.74;99400.69;5072966;27;46195;-80
2023/03/31 11:02:14;;;;;;;;;1.00;0.00;;;;;18.91;99.33;99424.84;5062723;27;45941;-79
2023/03/31 11:05:11;;;;;;;;;4.33;0.00;;;;;19.04;98.86;99418.56;5087774;27;45643;-80
2023/03/31 11:07:37;;;;;;;;;2.00;2.00;;;;;18.92;98.81;99423.69;5082183;27;45335;-81
2023/03/31 11:10:39;;;;;;;;;3.25;1.75;;;;;18.91;99.35;99410.94;5085792;27;46303;-79
2023/03/31 11:13:25;;;;;;;;;1.00;1.00;;;;;18.79;99.66;99418.88;5074793;27;46374;-78
2023/03/31 11:16:13;;;;;;;;;3.00;2.00;;;;;18.68;100.00;99413.41;5092680;27;45646;-80
2023/03/31 11:18:54;;;;;;;;;1.00;1.00;;;;;18.69;99.52;99409.50;5073667;27;45330;-79
2023/03/31 11:21:25;;;;;;;;;2.00;1.00;;;;;18.90;99.85;99411.25;5091503;27;45920;-81
2023/03/31 11:24:08;;;;;;;;;2.00;0.00;;;;;18.73;100.00;99415.31;5087568;27;47112;-80
2023/03/31 11:26:48;;;;;;;;;2.00;1.00;;;;;18.56;100.00;99437.16;5092400;27;45640;-79
2023/03/31 11:29:52;;;;;;;;;2.33;0.33;;;;;18.64;100.00;99417.09;5074042;27;45855;-83
2023/03/31 11:32:47;;;;;;;;;2.33;0.00;;;;;18.84;100.00;99410.44;5077641;27;45797;-73
2023/03/31 11:35:34;;;;;;;;;1.00;0.00;;;;;18.96;99.69;99415.63;5097478;27;46848;-79
2023/03/31 11:38:05;;;;;;;;;0.00;0.00;;;;;19.00;98.22;99420.28;5099903;27;45437;-80
2023/03/31 11:41:06;;;;;;;;;0.67;0.67;;;;;19.05;98.56;99416.59;5103561;27;45418;-79
2023/03/31 11:43:47;;;;;;;;;0.67;0.33;;;;;19.14;98.30;99397.31;5093911;27;46078;-80